createdAt,value
2023-12-23T00:00:23.933Z,983.51
2023-12-23T00:00:34.333Z,983.51
2023-12-23T00:01:05.988Z,983.61
2023-12-23T00:01:34.198Z,983.71
2023-12-23T00:01:53.859Z,983.71
2023-12-23T00:02:25.803Z,983.71
2023-12-23T00:02:57.810Z,983.51
2023-12-23T00:03:29.863Z,983.51
2023-12-23T00:04:01.872Z,983.61
2023-12-23T00:04:33.807Z,983.61
2023-12-23T00:05:06.140Z,983.71
2023-12-23T00:05:34.334Z,983.61
2023-12-23T00:05:54.964Z,983.61
2023-12-23T00:06:26.145Z,983.61
2023-12-23T00:06:57.802Z,983.61
2023-12-23T00:07:29.856Z,983.61
2023-12-23T00:08:01.968Z,983.61
2023-12-23T00:08:34.002Z,983.61
2023-12-23T00:09:06.615Z,983.51
2023-12-23T00:09:38.305Z,983.51
2023-12-23T00:10:10.434Z,983.71
2023-12-23T00:10:35.219Z,983.71
2023-12-23T00:10:59.415Z,983.71
2023-12-23T00:11:35.165Z,983.91
2023-12-23T00:12:02.926Z,983.91
2023-12-23T00:12:34.302Z,983.91
2023-12-23T00:13:05.823Z,984.12
2023-12-23T00:13:38.377Z,984.12
2023-12-23T00:14:09.870Z,984.22
2023-12-23T00:14:35.174Z,984.22
2023-12-23T00:14:57.839Z,984.22
2023-12-23T00:15:31.268Z,984.22
2023-12-23T00:16:03.182Z,984.02
2023-12-23T00:16:33.828Z,984.02
2023-12-23T00:17:06.014Z,984.32
2023-12-23T00:17:38.525Z,984.32
2023-12-23T00:18:10.314Z,984.42
2023-12-23T00:18:36.500Z,984.73
2023-12-23T00:18:58.315Z,984.73
2023-12-23T00:19:29.952Z,984.73
2023-12-23T00:20:03.943Z,984.93
2023-12-23T00:20:34.151Z,984.93
2023-12-23T00:21:06.189Z,984.93
2023-12-23T00:21:38.961Z,984.93
2023-12-23T00:22:09.871Z,984.83
2023-12-23T00:22:35.373Z,985.03
2023-12-23T00:22:58.371Z,985.03
2023-12-23T00:23:29.885Z,985.03
2023-12-23T00:24:02.177Z,985.23
2023-12-23T00:24:34.005Z,985.23
2023-12-23T00:25:06.256Z,984.83
2023-12-23T00:25:38.514Z,984.83
2023-12-23T00:26:10.067Z,985.23
2023-12-23T00:26:35.216Z,985.03
2023-12-23T00:26:58.172Z,985.03
2023-12-23T00:27:30.644Z,985.03
2023-12-23T00:28:02.085Z,985.03
2023-12-23T00:28:33.933Z,985.03
2023-12-23T00:29:05.955Z,985.23
2023-12-23T00:29:38.403Z,985.23
2023-12-23T00:30:21.643Z,985.13
2023-12-23T00:30:36.261Z,985.44
2023-12-23T00:30:58.440Z,985.44
2023-12-23T00:31:29.909Z,985.44
2023-12-23T00:32:01.968Z,985.23
2023-12-23T00:32:33.911Z,985.23
2023-12-23T00:33:05.914Z,985.34
2023-12-23T00:33:38.960Z,985.34
2023-12-23T00:34:09.903Z,985.34
2023-12-23T00:34:35.257Z,985.13
2023-12-23T00:34:57.909Z,985.13
2023-12-23T00:35:30.211Z,985.13
2023-12-23T00:36:02.154Z,985.44
2023-12-23T00:36:33.928Z,985.44
2023-12-23T00:37:05.902Z,985.13
2023-12-23T00:37:38.461Z,985.13
2023-12-23T00:38:09.874Z,985.23
2023-12-23T00:38:35.494Z,985.34
2023-12-23T00:38:57.832Z,985.34
2023-12-23T00:39:29.851Z,985.34
2023-12-23T00:40:03.619Z,985.44
2023-12-23T00:40:33.944Z,985.44
2023-12-23T00:41:05.942Z,985.54
2023-12-23T00:41:38.340Z,985.54
2023-12-23T00:42:20.160Z,985.81
2023-12-23T00:42:35.283Z,985.54
2023-12-23T00:42:57.974Z,985.54
2023-12-23T00:43:29.918Z,985.54
2023-12-23T00:44:01.927Z,985.54
2023-12-23T00:44:34.118Z,985.54
2023-12-23T00:45:07.399Z,985.64
2023-12-23T00:45:38.235Z,985.64
2023-12-23T00:46:10.083Z,985.44
2023-12-23T00:46:35.270Z,985.54
2023-12-23T00:46:57.843Z,985.54
2023-12-23T00:47:34.208Z,985.54
2023-12-23T00:48:05.193Z,985.34
2023-12-23T00:48:33.991Z,985.34
2023-12-23T00:49:05.941Z,985.54
2023-12-23T00:49:46.196Z,985.44
2023-12-23T00:50:10.197Z,985.44
2023-12-23T00:50:35.157Z,985.44
2023-12-23T00:50:58.100Z,985.44
2023-12-23T00:51:29.815Z,985.44
2023-12-23T00:52:01.913Z,985.44
2023-12-23T00:52:34.190Z,985.44
2023-12-23T00:53:05.878Z,985.54
2023-12-23T00:53:38.277Z,985.54
2023-12-23T00:54:10.100Z,985.54
2023-12-23T00:54:35.586Z,985.64
2023-12-23T00:54:58.103Z,985.64
2023-12-23T00:55:30.225Z,985.64
2023-12-23T00:56:02.623Z,985.71
2023-12-23T00:56:33.849Z,985.71
2023-12-23T00:57:05.866Z,985.64
2023-12-23T00:57:38.250Z,985.64
2023-12-23T00:58:09.797Z,985.71
2023-12-23T00:58:35.180Z,985.71
2023-12-23T00:58:57.931Z,985.71
2023-12-23T00:59:29.818Z,985.71
2023-12-23T01:00:18.420Z,985.71
2023-12-23T01:00:33.970Z,985.71
2023-12-23T01:01:05.871Z,985.81
2023-12-23T01:01:35.196Z,986.11
2023-12-23T01:01:53.966Z,986.11
2023-12-23T01:02:27.813Z,986.11
2023-12-23T01:02:58.168Z,985.71
2023-12-23T01:03:29.865Z,985.71
2023-12-23T01:04:01.997Z,985.64
2023-12-23T01:04:33.973Z,985.64
2023-12-23T01:05:06.269Z,985.81
2023-12-23T01:05:38.948Z,985.81
2023-12-23T01:06:10.158Z,985.81
2023-12-23T01:06:35.178Z,985.81
2023-12-23T01:06:58.023Z,985.81
2023-12-23T01:07:29.831Z,985.81
2023-12-23T01:08:01.925Z,985.64
2023-12-23T01:08:33.807Z,985.64
2023-12-23T01:09:05.838Z,985.81
2023-12-23T01:09:38.219Z,985.81
2023-12-23T01:10:10.264Z,985.64
2023-12-23T01:10:35.188Z,985.71
2023-12-23T01:10:58.193Z,985.71
2023-12-23T01:11:29.835Z,985.71
2023-12-23T01:12:02.808Z,985.71
2023-12-23T01:12:33.846Z,985.71
2023-12-23T01:13:05.788Z,985.64
2023-12-23T01:13:38.282Z,985.64
2023-12-23T01:14:10.071Z,985.81
2023-12-23T01:14:35.625Z,985.91
2023-12-23T01:14:57.817Z,985.91
2023-12-23T01:15:30.426Z,985.91
2023-12-23T01:16:03.215Z,985.54
2023-12-23T01:16:33.808Z,985.54
2023-12-23T01:17:05.841Z,985.71
2023-12-23T01:17:37.994Z,985.71
2023-12-23T01:18:10.417Z,985.81
2023-12-23T01:18:35.287Z,985.81
2023-12-23T01:18:58.126Z,985.81
2023-12-23T01:19:29.781Z,985.81
2023-12-23T01:20:03.418Z,985.71
2023-12-23T01:20:33.842Z,985.71
2023-12-23T01:21:05.865Z,985.81
2023-12-23T01:21:39.053Z,985.81
2023-12-23T01:22:09.944Z,985.71
2023-12-23T01:22:35.386Z,986.01
2023-12-23T01:22:58.187Z,986.01
2023-12-23T01:23:29.923Z,986.01
2023-12-23T01:24:02.209Z,985.91
2023-12-23T01:24:33.854Z,985.91
2023-12-23T01:25:06.528Z,985.91
2023-12-23T01:25:35.192Z,986.01
2023-12-23T01:25:54.342Z,986.01
2023-12-23T01:26:25.863Z,986.01
2023-12-23T01:26:42.966Z,985.91
2023-12-23T01:27:13.871Z,985.91
2023-12-23T01:27:35.701Z,986.01
2023-12-23T01:28:02.590Z,986.01
2023-12-23T01:28:34.328Z,986.01
2023-12-23T01:29:05.877Z,985.91
2023-12-23T01:29:37.936Z,985.91
2023-12-23T01:30:12.649Z,985.91
2023-12-23T01:30:35.174Z,986.01
2023-12-23T01:30:58.284Z,986.01
2023-12-23T01:31:29.822Z,986.01
2023-12-23T01:32:01.895Z,985.81
2023-12-23T01:32:33.877Z,985.81
2023-12-23T01:33:05.923Z,986.01
2023-12-23T01:33:37.926Z,986.01
2023-12-23T01:34:10.161Z,986.01
2023-12-23T01:34:35.149Z,986.01
2023-12-23T01:34:58.018Z,986.01
2023-12-23T01:35:30.216Z,986.01
2023-12-23T01:36:02.211Z,986.11
2023-12-23T01:36:33.819Z,986.11
2023-12-23T01:37:05.844Z,986.01
2023-12-23T01:37:39.098Z,986.01
2023-12-23T01:38:09.923Z,985.71
2023-12-23T01:38:35.388Z,986.01
2023-12-23T01:38:57.820Z,986.01
2023-12-23T01:39:29.931Z,986.01
2023-12-23T01:40:03.455Z,985.81
2023-12-23T01:40:34.138Z,985.81
2023-12-23T01:41:06.444Z,986.01
2023-12-23T01:41:36.498Z,986.11
2023-12-23T01:41:54.321Z,986.11
2023-12-23T01:42:26.154Z,986.11
2023-12-23T01:42:43.214Z,986.32
2023-12-23T01:43:13.896Z,986.32
2023-12-23T01:43:35.704Z,986.11
2023-12-23T01:44:03.482Z,986.11
2023-12-23T01:44:34.284Z,986.11
2023-12-23T01:45:06.951Z,986.22
2023-12-23T01:45:38.366Z,986.22
2023-12-23T01:46:10.064Z,986.22
2023-12-23T01:46:35.235Z,986.22
2023-12-23T01:46:58.004Z,986.22
2023-12-23T01:47:30.040Z,986.22
2023-12-23T01:48:02.640Z,986.11
2023-12-23T01:48:34.124Z,986.11
2023-12-23T01:49:05.971Z,986.11
2023-12-23T01:49:38.675Z,986.11
2023-12-23T01:50:10.728Z,986.22
2023-12-23T01:50:36.142Z,986.22
2023-12-23T01:50:58.350Z,986.22
2023-12-23T01:51:29.984Z,986.22
2023-12-23T01:52:02.053Z,986.01
2023-12-23T01:52:34.138Z,986.01
2023-12-23T01:53:05.983Z,986.11
2023-12-23T01:53:40.113Z,986.11
2023-12-23T01:54:10.256Z,986.11
2023-12-23T01:54:35.222Z,986.22
2023-12-23T01:54:58.647Z,986.22
2023-12-23T01:55:30.196Z,986.22
2023-12-23T01:56:02.035Z,986.32
2023-12-23T01:56:33.929Z,986.32
2023-12-23T01:57:05.966Z,986.11
2023-12-23T01:57:37.937Z,986.11
2023-12-23T01:58:09.905Z,986.22
2023-12-23T01:58:35.331Z,986.22
2023-12-23T01:58:58.033Z,986.22
2023-12-23T01:59:29.907Z,986.22
2023-12-23T02:00:34.515Z,986.11
2023-12-23T02:00:51.436Z,986.22
2023-12-23T02:01:22.133Z,986.22
2023-12-23T02:01:43.909Z,986.01
2023-12-23T02:02:09.978Z,986.01
2023-12-23T02:02:35.362Z,986.22
2023-12-23T02:02:58.196Z,986.22
2023-12-23T02:03:29.983Z,986.22
2023-12-23T02:04:02.039Z,986.22
2023-12-23T02:04:33.897Z,986.22
2023-12-23T02:05:06.317Z,986.11
2023-12-23T02:05:35.351Z,986.01
2023-12-23T02:05:54.653Z,986.01
2023-12-23T02:06:27.005Z,986.01
2023-12-23T02:06:43.223Z,986.11
2023-12-23T02:07:13.935Z,986.11
2023-12-23T02:07:35.808Z,986.11
2023-12-23T02:08:02.027Z,986.11
2023-12-23T02:08:33.962Z,986.11
2023-12-23T02:09:05.950Z,986.11
2023-12-23T02:09:39.095Z,986.11
2023-12-23T02:10:10.159Z,986.22
2023-12-23T02:10:35.198Z,986.11
2023-12-23T02:10:58.182Z,986.11
2023-12-23T02:11:29.807Z,986.11
2023-12-23T02:12:02.715Z,986.11
2023-12-23T02:12:34.111Z,986.11
2023-12-23T02:13:12.474Z,986.22
2023-12-23T02:13:35.232Z,986.11
2023-12-23T02:13:54.243Z,986.11
2023-12-23T02:14:25.859Z,986.11
2023-12-23T02:14:42.977Z,986.22
2023-12-23T02:15:14.427Z,986.22
2023-12-23T02:15:35.966Z,986.01
2023-12-23T02:16:03.219Z,986.01
2023-12-23T02:16:33.866Z,986.01
2023-12-23T02:17:05.862Z,986.22
2023-12-23T02:17:38.120Z,986.22
2023-12-23T02:18:11.028Z,986.22
2023-12-23T02:18:35.221Z,986.32
2023-12-23T02:18:58.265Z,986.32
2023-12-23T02:19:29.865Z,986.32
2023-12-23T02:20:03.497Z,986.22
2023-12-23T02:20:34.096Z,986.22
2023-12-23T02:21:05.883Z,986.22
2023-12-23T02:21:37.846Z,986.22
2023-12-23T02:22:09.843Z,986.22
2023-12-23T02:22:35.570Z,986.22
2023-12-23T02:22:57.866Z,986.22
2023-12-23T02:23:30.139Z,986.22
2023-12-23T02:24:02.349Z,986.22
2023-12-23T02:24:33.874Z,986.22
2023-12-23T02:25:06.198Z,986.32
2023-12-23T02:25:37.917Z,986.32
2023-12-23T02:26:09.878Z,986.32
2023-12-23T02:26:35.589Z,986.22
2023-12-23T02:26:57.782Z,986.22
2023-12-23T02:27:30.618Z,986.22
2023-12-23T02:28:01.973Z,986.11
2023-12-23T02:28:33.810Z,986.11
2023-12-23T02:29:05.861Z,986.22
2023-12-23T02:29:35.145Z,986.22
2023-12-23T02:29:54.173Z,986.22
2023-12-23T02:30:27.231Z,986.22
2023-12-23T02:30:43.550Z,986.32
2023-12-23T02:31:13.829Z,986.32
2023-12-23T02:31:35.706Z,986.32
2023-12-23T02:32:02.046Z,986.32
2023-12-23T02:32:33.952Z,986.32
2023-12-23T02:33:05.962Z,986.42
2023-12-23T02:33:37.963Z,986.42
2023-12-23T02:34:09.972Z,986.22
2023-12-23T02:34:35.709Z,986.01
2023-12-23T02:34:57.958Z,986.01
2023-12-23T02:35:30.163Z,986.01
2023-12-23T02:36:02.227Z,986.22
2023-12-23T02:36:33.889Z,986.22
2023-12-23T02:37:06.802Z,986.01
2023-12-23T02:37:37.965Z,986.01
2023-12-23T02:38:09.941Z,986.32
2023-12-23T02:38:35.183Z,986.42
2023-12-23T02:38:57.914Z,986.42
2023-12-23T02:39:30.135Z,986.42
2023-12-23T02:40:03.324Z,986.32
2023-12-23T02:40:34.172Z,986.32
2023-12-23T02:41:05.945Z,986.22
2023-12-23T02:41:37.907Z,986.22
2023-12-23T02:42:10.139Z,986.22
2023-12-23T02:42:35.429Z,986.32
2023-12-23T02:42:57.945Z,986.32
2023-12-23T02:43:30.582Z,986.32
2023-12-23T02:44:01.953Z,986.22
2023-12-23T02:44:33.874Z,986.22
2023-12-23T02:45:06.462Z,986.11
2023-12-23T02:45:38.015Z,986.11
2023-12-23T02:46:10.060Z,986.22
2023-12-23T02:46:36.663Z,986.11
2023-12-23T02:46:57.887Z,986.11
2023-12-23T02:47:29.922Z,986.11
2023-12-23T02:48:02.272Z,986.22
2023-12-23T02:48:33.974Z,986.22
2023-12-23T02:49:05.954Z,986.22
2023-12-23T02:49:35.342Z,986.22
2023-12-23T02:49:54.310Z,986.22
2023-12-23T02:50:26.230Z,986.22
2023-12-23T02:50:43.014Z,986.52
2023-12-23T02:51:13.911Z,986.52
2023-12-23T02:51:35.964Z,986.42
2023-12-23T02:52:01.932Z,986.42
2023-12-23T02:52:34.198Z,986.42
2023-12-23T02:53:06.922Z,986.32
2023-12-23T02:53:35.165Z,986.32
2023-12-23T02:53:54.302Z,986.32
2023-12-23T02:54:26.708Z,986.32
2023-12-23T02:54:42.997Z,986.22
2023-12-23T02:55:14.262Z,986.22
2023-12-23T02:55:35.755Z,986.32
2023-12-23T02:56:02.038Z,986.32
2023-12-23T02:56:33.867Z,986.32
2023-12-23T02:57:05.840Z,986.42
2023-12-23T02:57:35.306Z,986.42
2023-12-23T02:57:54.235Z,986.42
2023-12-23T02:58:25.870Z,986.42
2023-12-23T02:58:42.944Z,986.62
2023-12-23T02:59:13.838Z,986.62
2023-12-23T02:59:35.642Z,986.32
2023-12-23T03:00:06.187Z,986.32
2023-12-23T03:00:34.632Z,986.32
2023-12-23T03:01:05.888Z,986.52
2023-12-23T03:01:35.271Z,986.22
2023-12-23T03:01:54.444Z,986.22
2023-12-23T03:02:25.873Z,986.22
2023-12-23T03:02:43.606Z,986.32
2023-12-23T03:03:13.851Z,986.32
2023-12-23T03:03:35.755Z,986.42
2023-12-23T03:04:01.891Z,986.42
2023-12-23T03:04:33.830Z,986.42
2023-12-23T03:05:06.277Z,986.62
2023-12-23T03:05:35.513Z,986.32
2023-12-23T03:05:55.821Z,986.32
2023-12-23T03:06:26.139Z,986.32
2023-12-23T03:06:42.932Z,986.32
2023-12-23T03:07:14.170Z,986.32
2023-12-23T03:07:35.667Z,986.22
2023-12-23T03:08:01.937Z,986.22
2023-12-23T03:08:33.821Z,986.22
2023-12-23T03:09:06.493Z,986.22
2023-12-23T03:09:35.100Z,986.32
2023-12-23T03:09:54.296Z,986.32
2023-12-23T03:10:26.198Z,986.32
2023-12-23T03:10:43.024Z,986.32
2023-12-23T03:11:13.906Z,986.32
2023-12-23T03:11:35.690Z,986.52
2023-12-23T03:12:02.270Z,986.52
2023-12-23T03:12:33.993Z,986.52
2023-12-23T03:13:05.892Z,986.42
2023-12-23T03:13:35.597Z,986.32
2023-12-23T03:13:54.415Z,986.32
2023-12-23T03:14:25.907Z,986.32
2023-12-23T03:14:42.971Z,986.22
2023-12-23T03:15:14.432Z,986.22
2023-12-23T03:15:35.689Z,986.32
2023-12-23T03:16:03.089Z,986.32
2023-12-23T03:16:33.868Z,986.32
2023-12-23T03:17:05.891Z,986.01
2023-12-23T03:17:35.503Z,986.01
2023-12-23T03:18:26.231Z,986.01
2023-12-23T03:18:43.683Z,985.91
2023-12-23T03:19:13.928Z,985.91
2023-12-23T03:19:35.738Z,986.11
2023-12-23T03:20:03.565Z,986.11
2023-12-23T03:20:33.874Z,986.11
2023-12-23T03:21:05.817Z,986.01
2023-12-23T03:21:35.111Z,986.11
2023-12-23T03:21:55.861Z,986.11
2023-12-23T03:22:25.834Z,986.11
2023-12-23T03:22:42.966Z,985.81
2023-12-23T03:23:13.880Z,985.81
2023-12-23T03:23:35.616Z,986.11
2023-12-23T03:24:02.288Z,986.11
2023-12-23T03:24:33.834Z,986.11
2023-12-23T03:25:08.491Z,986.01
2023-12-23T03:25:35.344Z,985.71
2023-12-23T03:25:55.158Z,985.71
2023-12-23T03:26:25.908Z,985.71
2023-12-23T03:26:42.966Z,986.01
2023-12-23T03:27:13.847Z,986.01
2023-12-23T03:27:35.604Z,986.01
2023-12-23T03:28:01.923Z,986.01
2023-12-23T03:28:33.827Z,986.01
2023-12-23T03:29:05.847Z,985.91
2023-12-23T03:36:50.320Z,985.81
2023-12-23T03:37:21.828Z,985.81
2023-12-23T03:37:54.731Z,985.81
2023-12-23T03:38:25.853Z,985.81
2023-12-23T03:38:42.908Z,985.71
2023-12-23T03:39:13.896Z,985.71
2023-12-23T03:39:35.616Z,985.71
2023-12-23T03:40:03.478Z,985.71
2023-12-23T03:40:33.905Z,985.71
2023-12-23T03:41:06.663Z,985.81
2023-12-23T03:41:37.834Z,985.81
2023-12-23T03:42:10.061Z,985.81
2023-12-23T03:42:35.130Z,985.91
2023-12-23T03:42:57.960Z,985.91
2023-12-23T03:43:29.930Z,985.91
2023-12-23T03:44:02.030Z,985.81
2023-12-23T03:44:33.830Z,985.81
2023-12-23T03:45:06.554Z,985.81
2023-12-23T03:45:35.152Z,986.11
2023-12-23T03:45:54.506Z,986.11
2023-12-23T03:46:25.862Z,986.11
2023-12-23T03:46:43.167Z,985.81
2023-12-23T03:47:14.075Z,985.81
2023-12-23T03:47:35.703Z,985.64
2023-12-23T03:48:09.409Z,985.64
2023-12-23T03:48:34.252Z,985.64
2023-12-23T03:49:05.854Z,985.71
2023-12-23T03:49:35.497Z,985.64
2023-12-23T03:49:54.361Z,985.64
2023-12-23T03:50:26.239Z,985.64
2023-12-23T03:50:43.655Z,985.64
2023-12-23T03:51:13.850Z,985.64
2023-12-23T03:51:35.630Z,985.64
2023-12-23T03:52:01.913Z,985.64
2023-12-23T03:52:33.854Z,985.64
2023-12-23T03:53:05.884Z,985.64
2023-12-23T03:53:37.831Z,985.64
2023-12-23T03:54:10.103Z,985.81
2023-12-23T03:54:35.121Z,985.71
2023-12-23T03:54:57.953Z,985.71
2023-12-23T03:55:30.219Z,985.71
2023-12-23T03:56:01.930Z,985.81
2023-12-23T03:56:33.849Z,985.81
2023-12-23T03:57:06.640Z,985.64
2023-12-23T03:57:37.792Z,985.64
2023-12-23T03:58:09.907Z,985.81
2023-12-23T03:58:35.354Z,985.64
2023-12-23T03:58:58.186Z,985.64
2023-12-23T03:59:29.892Z,985.64
2023-12-23T04:00:11.262Z,985.71
2023-12-23T04:00:34.492Z,985.71
2023-12-23T04:01:05.893Z,985.64
2023-12-23T04:01:37.875Z,985.64
2023-12-23T04:02:09.930Z,985.71
2023-12-23T04:02:35.511Z,985.54
2023-12-23T04:02:57.808Z,985.54
2023-12-23T04:03:30.813Z,985.54
2023-12-23T04:04:01.958Z,985.81
2023-12-23T04:04:33.802Z,985.81
2023-12-23T04:05:06.147Z,985.64
2023-12-23T04:05:37.855Z,985.64
2023-12-23T04:06:10.099Z,985.64
2023-12-23T04:06:36.360Z,985.54
2023-12-23T04:06:58.084Z,985.54
2023-12-23T04:07:29.942Z,985.54
2023-12-23T04:08:01.934Z,985.54
2023-12-23T04:08:33.872Z,985.54
2023-12-23T04:09:05.868Z,985.71
2023-12-23T04:09:35.148Z,985.54
2023-12-23T04:09:55.854Z,985.54
2023-12-23T04:10:26.152Z,985.54
2023-12-23T04:10:42.967Z,985.54
2023-12-23T04:11:13.984Z,985.54
2023-12-23T04:11:35.676Z,985.71
2023-12-23T04:12:02.248Z,985.71
2023-12-23T04:12:33.871Z,985.71
2023-12-23T04:13:06.739Z,985.64
2023-12-23T04:13:35.130Z,985.54
2023-12-23T04:13:54.328Z,985.54
2023-12-23T04:14:25.913Z,985.54
2023-12-23T04:14:42.987Z,985.44
2023-12-23T04:15:14.595Z,985.44
2023-12-23T04:15:35.642Z,985.71
2023-12-23T04:16:03.043Z,985.71
2023-12-23T04:16:33.861Z,985.71
2023-12-23T04:17:05.915Z,985.64
2023-12-23T04:17:38.033Z,985.64
2023-12-23T04:18:10.172Z,985.64
2023-12-23T04:18:35.237Z,985.64
2023-12-23T04:18:58.028Z,985.64
2023-12-23T04:19:36.439Z,985.64
2023-12-23T04:20:03.449Z,985.54
2023-12-23T04:20:34.225Z,985.54
2023-12-23T04:21:05.835Z,985.54
2023-12-23T04:21:35.226Z,985.44
2023-12-23T04:21:54.271Z,985.44
2023-12-23T04:22:25.878Z,985.44
2023-12-23T04:22:43.734Z,985.54
2023-12-23T04:23:13.860Z,985.54
2023-12-23T04:23:35.658Z,985.54
2023-12-23T04:24:02.135Z,985.54
2023-12-23T04:24:33.941Z,985.54
2023-12-23T04:25:06.148Z,985.44
2023-12-23T04:25:37.886Z,985.44
2023-12-23T04:26:09.913Z,985.34
2023-12-23T04:26:35.146Z,985.34
2023-12-23T04:26:57.807Z,985.34
2023-12-23T04:27:32.675Z,985.34
2023-12-23T04:28:01.862Z,985.23
2023-12-23T04:28:34.020Z,985.23
2023-12-23T04:29:05.916Z,985.44
2023-12-23T04:29:35.117Z,985.44
2023-12-23T04:29:54.308Z,985.44
2023-12-23T04:30:26.862Z,985.44
2023-12-23T04:30:43.777Z,985.13
2023-12-23T04:31:14.887Z,985.13
2023-12-23T04:31:35.706Z,985.34
2023-12-23T04:32:02.018Z,985.34
2023-12-23T04:32:34.146Z,985.34
2023-12-23T04:33:05.941Z,985.23
2023-12-23T04:33:35.214Z,985.23
2023-12-23T04:33:54.416Z,985.23
2023-12-23T04:34:25.862Z,985.23
2023-12-23T04:34:42.968Z,985.34
2023-12-23T04:35:14.337Z,985.34
2023-12-23T04:35:35.625Z,985.34
2023-12-23T04:36:02.565Z,985.34
2023-12-23T04:36:34.056Z,985.34
2023-12-23T04:37:06.735Z,985.34
2023-12-23T04:37:35.308Z,985.44
2023-12-23T04:37:54.348Z,985.44
2023-12-23T04:38:25.950Z,985.44
2023-12-23T04:38:42.943Z,985.23
2023-12-23T04:39:13.846Z,985.23
2023-12-23T04:39:35.613Z,985.34
2023-12-23T04:40:03.405Z,985.34
2023-12-23T04:40:34.300Z,985.34
2023-12-23T04:41:05.955Z,985.34
2023-12-23T04:41:35.227Z,985.34
2023-12-23T04:41:54.280Z,985.34
2023-12-23T04:42:26.395Z,985.34
2023-12-23T04:42:43.008Z,985.34
2023-12-23T04:43:13.864Z,985.34
2023-12-23T04:43:35.599Z,985.34
2023-12-23T04:44:02.095Z,985.34
2023-12-23T04:44:34.043Z,985.34
2023-12-23T04:45:06.431Z,985.23
2023-12-23T04:45:35.535Z,985.13
2023-12-23T04:45:54.650Z,985.13
2023-12-23T04:46:25.885Z,985.13
2023-12-23T04:46:44.588Z,985.34
2023-12-23T04:47:13.919Z,985.34
2023-12-23T04:47:42.605Z,985.13
2023-12-23T04:48:03.881Z,985.13
2023-12-23T04:48:33.914Z,985.13
2023-12-23T04:49:05.889Z,985.44
2023-12-23T04:49:37.873Z,985.44
2023-12-23T04:50:10.262Z,985.23
2023-12-23T04:50:35.226Z,985.13
2023-12-23T04:50:58.444Z,985.13
2023-12-23T04:51:29.911Z,985.13
2023-12-23T04:52:01.855Z,985.23
2023-12-23T04:52:33.838Z,985.23
2023-12-23T04:53:06.823Z,985.34
2023-12-23T04:53:35.453Z,985.34
2023-12-23T04:53:54.299Z,985.34
2023-12-23T04:54:26.316Z,985.34
2023-12-23T04:54:43.588Z,985.13
2023-12-23T04:55:14.203Z,985.13
2023-12-23T04:55:35.703Z,985.13
2023-12-23T04:56:02.353Z,985.13
2023-12-23T04:56:33.862Z,985.13
2023-12-23T04:57:05.852Z,985.13
2023-12-23T04:57:37.853Z,985.13
2023-12-23T04:58:09.950Z,985.44
2023-12-23T04:58:35.172Z,985.44
2023-12-23T04:58:57.865Z,985.44
2023-12-23T04:59:30.609Z,985.44
2023-12-23T05:00:06.508Z,985.23
2023-12-23T05:00:33.852Z,985.23
2023-12-23T05:01:05.888Z,985.34
2023-12-23T05:01:37.854Z,985.34
2023-12-23T05:02:09.544Z,985.34
2023-12-23T05:02:35.688Z,985.34
2023-12-23T05:02:57.453Z,985.34
2023-12-23T05:03:29.486Z,985.34
2023-12-23T05:04:01.465Z,985.23
2023-12-23T05:04:33.348Z,985.23
2023-12-23T05:05:05.787Z,985.13
2023-12-23T05:05:34.702Z,985.23
2023-12-23T05:05:53.645Z,985.23
2023-12-23T05:06:25.680Z,985.23
2023-12-23T05:06:43.245Z,985.13
2023-12-23T05:07:14.768Z,985.13
2023-12-23T05:07:36.118Z,985.23
2023-12-23T05:08:01.846Z,985.23
2023-12-23T05:08:34.012Z,985.23
2023-12-23T05:09:06.522Z,985.23
2023-12-23T05:09:35.103Z,985.13
2023-12-23T05:09:53.829Z,985.13
2023-12-23T05:10:26.211Z,985.13
2023-12-23T05:10:42.992Z,985.34
2023-12-23T05:11:13.814Z,985.34
2023-12-23T05:11:36.310Z,985.13
2023-12-23T05:12:02.109Z,985.13
2023-12-23T05:12:34.184Z,985.13
2023-12-23T05:13:06.224Z,984.93
2023-12-23T05:13:38.069Z,984.93
2023-12-23T05:14:09.914Z,984.83
2023-12-23T05:14:35.144Z,985.34
2023-12-23T05:14:57.839Z,985.34
2023-12-23T05:15:31.252Z,985.34
2023-12-23T05:16:03.198Z,984.93
2023-12-23T05:16:33.840Z,984.93
2023-12-23T05:17:06.271Z,985.13
2023-12-23T05:17:36.175Z,985.03
2023-12-23T05:17:53.959Z,985.03
2023-12-23T05:18:26.263Z,985.03
2023-12-23T05:18:44.293Z,985.13
2023-12-23T05:19:13.913Z,985.13
2023-12-23T05:19:36.069Z,984.93
2023-12-23T05:20:03.414Z,984.93
2023-12-23T05:20:34.364Z,984.93
2023-12-23T05:21:06.454Z,985.13
2023-12-23T05:21:35.087Z,985.03
2023-12-23T05:21:54.944Z,985.03
2023-12-23T05:22:25.848Z,985.03
2023-12-23T05:22:42.966Z,985.03
2023-12-23T05:23:13.920Z,985.03
2023-12-23T05:23:36.078Z,985.03
2023-12-23T05:24:02.121Z,985.03
2023-12-23T05:24:34.466Z,985.03
2023-12-23T05:25:08.321Z,985.03
2023-12-23T05:25:36.006Z,985.03
2023-12-23T05:25:54.123Z,985.03
2023-12-23T05:26:26.002Z,985.03
2023-12-23T05:26:43.001Z,984.73
2023-12-23T05:27:13.824Z,984.73
2023-12-23T05:27:36.006Z,984.93
2023-12-23T05:28:01.858Z,984.93
2023-12-23T05:28:33.880Z,984.93
2023-12-23T05:29:06.324Z,984.93
2023-12-23T05:29:37.927Z,984.93
2023-12-23T05:30:15.184Z,985.13
2023-12-23T05:30:35.202Z,984.83
2023-12-23T05:30:58.304Z,984.83
2023-12-23T05:31:30.815Z,984.83
2023-12-23T05:32:01.935Z,985.13
2023-12-23T05:32:34.312Z,985.13
2023-12-23T05:33:06.333Z,984.93
2023-12-23T05:33:37.999Z,984.93
2023-12-23T05:34:09.942Z,985.03
2023-12-23T05:34:36.466Z,985.03
2023-12-23T05:34:57.876Z,985.03
2023-12-23T05:35:30.248Z,985.03
2023-12-23T05:36:02.392Z,984.83
2023-12-23T05:36:33.894Z,984.83
2023-12-23T05:37:06.261Z,985.13
2023-12-23T05:37:38.599Z,985.13
2023-12-23T05:38:09.911Z,984.83
2023-12-23T05:38:35.352Z,984.93
2023-12-23T05:38:57.834Z,984.93
2023-12-23T05:39:29.897Z,984.93
2023-12-23T05:40:03.444Z,984.93
2023-12-23T05:40:33.840Z,984.93
2023-12-23T05:41:06.335Z,985.03
2023-12-23T05:41:35.115Z,985.13
2023-12-23T05:41:53.852Z,985.13
2023-12-23T05:42:26.374Z,985.13
2023-12-23T05:42:58.019Z,984.83
2023-12-23T05:43:29.974Z,984.83
2023-12-23T05:44:03.664Z,984.83
2023-12-23T05:44:33.979Z,984.83
2023-12-23T05:45:07.164Z,984.83
2023-12-23T05:45:37.973Z,984.83
2023-12-23T05:46:09.948Z,984.83
2023-12-23T05:46:35.428Z,984.93
2023-12-23T05:46:57.934Z,984.93
2023-12-23T05:47:30.029Z,984.93
2023-12-23T05:48:02.233Z,984.93
2023-12-23T05:48:34.168Z,984.93
2023-12-23T05:49:06.398Z,985.03
2023-12-23T05:49:35.136Z,985.03
2023-12-23T05:49:53.953Z,985.03
2023-12-23T05:50:27.267Z,985.03
2023-12-23T05:50:58.048Z,985.03
2023-12-23T05:51:29.958Z,985.03
2023-12-23T05:52:01.994Z,984.93
2023-12-23T05:52:33.916Z,984.93
2023-12-23T05:53:06.580Z,984.83
2023-12-23T05:53:38.662Z,984.83
2023-12-23T05:54:10.258Z,984.93
2023-12-23T05:54:35.109Z,984.93
2023-12-23T05:54:58.179Z,984.93
2023-12-23T05:55:30.299Z,984.93
2023-12-23T05:56:01.887Z,984.73
2023-12-23T05:56:33.878Z,984.73
2023-12-23T05:57:06.315Z,984.93
2023-12-23T05:57:35.078Z,984.93
2023-12-23T05:57:53.876Z,984.93
2023-12-23T05:58:25.863Z,984.93
2023-12-23T05:58:43.086Z,984.83
2023-12-23T05:59:13.936Z,984.83
2023-12-23T05:59:35.998Z,984.93
2023-12-23T06:00:26.323Z,984.93
2023-12-23T06:00:51.721Z,985.03
2023-12-23T06:01:21.914Z,985.03
2023-12-23T06:01:53.932Z,984.93
2023-12-23T06:02:26.009Z,984.93
2023-12-23T06:02:42.979Z,984.83
2023-12-23T06:03:14.670Z,984.83
2023-12-23T06:03:36.108Z,984.93
2023-12-23T06:04:01.938Z,984.93
2023-12-23T06:04:33.830Z,984.93
2023-12-23T06:05:06.649Z,984.83
2023-12-23T06:05:36.099Z,984.83